createdAt,value
2023-01-18T00:01:15.189Z,68.40
2023-01-18T00:03:16.775Z,45.67
2023-01-18T00:05:19.736Z,49.33
2023-01-18T00:07:21.239Z,60.50
2023-01-18T00:09:22.759Z,57.63
2023-01-18T00:11:24.304Z,62.50
2023-01-18T00:13:25.853Z,59.35
2023-01-18T00:15:27.505Z,53.03
2023-01-18T00:17:29.031Z,45.33
2023-01-18T00:19:30.729Z,46.78
2023-01-18T00:21:32.326Z,45.70
2023-01-18T00:23:34.013Z,46.53
2023-01-18T00:25:36.156Z,47.30
2023-01-18T00:27:38.515Z,48.72
2023-01-18T00:29:40.065Z,47.38
2023-01-18T00:31:41.900Z,53.42
2023-01-18T00:33:44.761Z,47.25
2023-01-18T00:35:58.692Z,60.03
2023-01-18T00:38:00.257Z,44.28
2023-01-18T00:40:02.649Z,47.90
2023-01-18T00:42:22.527Z,56.00
2023-01-18T00:44:24.011Z,43.00
2023-01-18T00:46:27.542Z,48.38
2023-01-18T00:48:29.079Z,42.70
2023-01-18T00:50:30.626Z,51.45
2023-01-18T00:52:33.780Z,44.33
2023-01-18T00:54:35.311Z,45.88
2023-01-18T00:56:36.878Z,44.72
2023-01-18T00:58:38.490Z,45.00
2023-01-18T01:00:40.047Z,55.42
2023-01-18T01:02:41.809Z,52.92
2023-01-18T01:05:01.664Z,56.72
2023-01-18T01:07:03.248Z,52.28
2023-01-18T01:09:04.762Z,46.28
2023-01-18T01:11:12.211Z,43.60
2023-01-18T01:13:35.005Z,43.10
2023-01-18T01:15:55.883Z,57.53
2023-01-18T01:18:15.708Z,50.53
2023-01-18T01:20:36.105Z,54.78
2023-01-18T01:22:56.626Z,55.40
2023-01-18T01:25:17.296Z,45.85
2023-01-18T01:27:18.843Z,48.78
2023-01-18T01:29:20.430Z,54.75
2023-01-18T01:31:22.006Z,47.58
2023-01-18T01:33:23.609Z,43.03
2023-01-18T01:35:25.162Z,48.03
2023-01-18T01:37:26.748Z,42.55
2023-01-18T01:39:28.598Z,41.38
2023-01-18T01:41:34.908Z,41.40
2023-01-18T01:43:58.101Z,44.22
2023-01-18T01:45:59.670Z,42.50
2023-01-18T01:48:01.201Z,63.60
2023-01-18T01:50:08.597Z,56.22
2023-01-18T01:52:16.828Z,49.42
2023-01-18T01:54:29.329Z,61.63
2023-01-18T01:56:31.662Z,53.25
2023-01-18T01:58:33.628Z,47.38
2023-01-18T02:00:35.517Z,43.28
2023-01-18T02:02:37.974Z,53.95
2023-01-18T02:04:44.244Z,39.53
2023-01-18T02:06:45.827Z,37.15
2023-01-18T02:08:48.345Z,44.45
2023-01-18T02:10:50.862Z,40.33
2023-01-18T02:12:54.895Z,40.00
2023-01-18T02:14:58.527Z,43.65
2023-01-18T02:17:28.474Z,51.05
2023-01-18T02:19:54.500Z,57.42
2023-01-18T02:21:59.910Z,49.83
2023-01-18T02:24:39.279Z,47.38
2023-01-18T02:26:52.596Z,42.53
2023-01-18T02:29:15.128Z,39.83
2023-01-18T02:31:24.893Z,34.85
2023-01-18T02:34:13.471Z,34.85
2023-01-18T02:36:26.339Z,36.83
2023-01-18T02:38:35.467Z,30.60
2023-01-18T02:40:39.876Z,28.60
2023-01-18T02:43:02.673Z,34.75
2023-01-18T02:45:35.590Z,37.83
2023-01-18T02:47:37.916Z,30.48
2023-01-18T02:49:39.490Z,34.55
2023-01-18T02:51:41.087Z,36.85
2023-01-18T02:53:44.638Z,37.10
2023-01-18T02:55:50.507Z,30.38
2023-01-18T02:57:56.810Z,34.72
2023-01-18T03:00:00.783Z,33.95
2023-01-18T03:02:08.168Z,28.58
2023-01-18T03:04:34.024Z,29.33
2023-01-18T03:06:35.708Z,35.67
2023-01-18T03:08:49.186Z,37.95
2023-01-18T03:10:59.985Z,36.60
2023-01-18T03:13:21.073Z,27.45
2023-01-18T03:15:53.633Z,35.45
2023-01-18T03:17:58.260Z,30.52
2023-01-18T03:20:10.215Z,25.42
2023-01-18T03:22:11.753Z,27.60
2023-01-18T03:24:16.292Z,37.03
2023-01-18T03:26:20.380Z,32.47
2023-01-18T03:28:53.096Z,43.22
2023-01-18T03:31:17.665Z,45.80
2023-01-18T03:33:40.703Z,48.08
2023-01-18T03:35:42.331Z,29.08
2023-01-18T03:37:46.130Z,38.20
2023-01-18T03:39:54.869Z,31.85
2023-01-18T03:42:02.763Z,33.27
2023-01-18T03:44:10.929Z,25.35
2023-01-18T03:46:17.412Z,32.70
2023-01-18T03:48:19.518Z,34.28
2023-01-18T03:50:31.485Z,30.88
2023-01-18T03:52:41.759Z,31.63
2023-01-18T03:55:04.941Z,27.85
2023-01-18T03:57:18.939Z,26.20
2023-01-18T03:59:21.714Z,31.13
2023-01-18T04:01:23.959Z,20.85
2023-01-18T04:03:25.582Z,26.35
2023-01-18T04:05:27.249Z,27.50
2023-01-18T04:07:29.311Z,28.52
2023-01-18T04:09:30.935Z,33.03
2023-01-18T04:11:32.504Z,38.38
2023-01-18T04:13:34.071Z,28.27
2023-01-18T04:15:35.639Z,19.42
2023-01-18T04:17:37.152Z,27.88
2023-01-18T04:19:40.617Z,40.28
2023-01-18T04:21:42.166Z,27.95
2023-01-18T04:23:43.693Z,30.77
2023-01-18T04:25:50.094Z,13.77
2023-01-18T04:27:51.626Z,33.70
2023-01-18T04:29:53.280Z,16.27
2023-01-18T04:31:55.218Z,12.07
2023-01-18T04:33:56.868Z,21.73
2023-01-18T04:35:58.403Z,27.13
2023-01-18T04:37:59.929Z,18.35
2023-01-18T04:40:01.563Z,29.73
2023-01-18T04:42:03.131Z,25.70
2023-01-18T04:44:05.153Z,18.02
2023-01-18T04:46:06.650Z,23.67
2023-01-18T04:48:08.325Z,29.00
2023-01-18T04:50:10.657Z,13.60
2023-01-18T04:52:12.200Z,21.98
2023-01-18T04:54:16.776Z,15.50
2023-01-18T04:56:18.430Z,25.50
2023-01-18T04:58:20.080Z,27.70
2023-01-18T05:00:22.412Z,44.95
2023-01-18T05:02:24.163Z,43.10
2023-01-18T05:04:25.726Z,28.77
2023-01-18T05:06:27.251Z,12.15
2023-01-18T05:08:28.762Z,32.70
2023-01-18T05:10:30.341Z,29.80
2023-01-18T05:12:31.897Z,33.58
2023-01-18T05:14:33.660Z,35.00
2023-01-18T05:16:35.636Z,24.25
2023-01-18T05:18:37.157Z,31.83
2023-01-18T05:20:38.730Z,15.60
2023-01-18T05:22:40.242Z,20.10
2023-01-18T05:24:41.779Z,11.60
2023-01-18T05:26:43.324Z,17.80
2023-01-18T05:28:45.443Z,11.93
2023-01-18T05:30:49.331Z,13.00
2023-01-18T05:32:50.889Z,24.05
2023-01-18T05:34:52.399Z,27.70
2023-01-18T05:36:53.943Z,32.38
2023-01-18T05:38:56.001Z,56.10
2023-01-18T05:40:57.534Z,30.33
2023-01-18T05:42:59.325Z,23.05
2023-01-18T05:45:01.079Z,21.77
2023-01-18T05:47:02.619Z,25.42
2023-01-18T05:49:04.299Z,30.60
2023-01-18T05:51:11.284Z,27.02
2023-01-18T05:53:14.579Z,17.02
2023-01-18T05:55:16.107Z,20.38
2023-01-18T05:57:17.648Z,17.33
2023-01-18T05:59:19.512Z,28.80
2023-01-18T06:01:21.131Z,27.58
2023-01-18T06:03:23.996Z,28.92
2023-01-18T06:05:25.545Z,34.13
2023-01-18T06:07:27.151Z,44.78
2023-01-18T06:09:30.172Z,44.75
2023-01-18T06:11:31.989Z,24.80
2023-01-18T06:13:33.867Z,18.60
2023-01-18T06:15:35.716Z,18.05
2023-01-18T06:17:37.555Z,19.98
2023-01-18T06:19:39.114Z,23.55
2023-01-18T06:21:40.716Z,28.77
2023-01-18T06:23:42.204Z,26.70
2023-01-18T06:25:43.707Z,19.50
2023-01-18T06:27:45.204Z,23.33
2023-01-18T06:29:46.730Z,17.27
2023-01-18T06:31:48.367Z,30.50
2023-01-18T06:33:50.107Z,24.63
2023-01-18T06:35:52.438Z,31.58
2023-01-18T06:37:56.494Z,19.73
2023-01-18T06:39:58.058Z,21.00
2023-01-18T06:41:59.582Z,25.02
2023-01-18T06:44:01.088Z,21.83
2023-01-18T06:46:02.920Z,33.05
2023-01-18T06:48:04.544Z,35.88
2023-01-18T06:50:06.342Z,20.63
2023-01-18T06:52:07.867Z,27.42
2023-01-18T06:54:09.511Z,23.05
2023-01-18T06:56:11.824Z,25.55
2023-01-18T06:58:13.323Z,22.63
2023-01-18T07:00:17.382Z,23.77
2023-01-18T07:02:20.974Z,30.25
2023-01-18T07:04:22.534Z,46.08
2023-01-18T07:06:24.207Z,25.55
2023-01-18T07:08:27.091Z,35.80
2023-01-18T07:10:28.702Z,34.70
2023-01-18T07:12:30.233Z,44.05
2023-01-18T07:14:31.732Z,42.90
2023-01-18T07:16:33.336Z,20.67
2023-01-18T07:18:34.908Z,30.38
2023-01-18T07:20:36.743Z,28.92
2023-01-18T07:22:38.256Z,32.25
2023-01-18T07:24:39.924Z,23.63
2023-01-18T07:26:41.402Z,36.63
2023-01-18T07:28:44.583Z,33.58
2023-01-18T07:30:46.597Z,33.65
2023-01-18T07:32:50.137Z,28.00
2023-01-18T07:34:51.643Z,30.58
2023-01-18T07:36:54.371Z,41.60
2023-01-18T07:38:55.867Z,42.92
2023-01-18T07:40:59.755Z,42.53
2023-01-18T07:43:02.854Z,47.70
2023-01-18T07:45:05.754Z,28.67
2023-01-18T07:47:07.959Z,38.88
2023-01-18T07:49:09.596Z,48.05
2023-01-18T07:51:11.398Z,46.10
2023-01-18T07:53:13.063Z,25.80
2023-01-18T07:55:14.739Z,21.63
2023-01-18T07:57:16.381Z,23.58
2023-01-18T07:59:19.029Z,31.35
2023-01-18T08:01:23.031Z,40.63
2023-01-18T08:03:24.873Z,25.65
2023-01-18T08:05:27.752Z,30.23
2023-01-18T08:07:32.744Z,27.95
2023-01-18T08:09:34.529Z,36.22
2023-01-18T08:11:36.007Z,38.97
2023-01-18T08:13:38.079Z,40.30
2023-01-18T08:15:40.430Z,15.73
2023-01-18T08:17:43.421Z,33.70
2023-01-18T08:19:44.940Z,32.17
2023-01-18T08:21:47.760Z,31.48
2023-01-18T08:23:51.217Z,35.97
2023-01-18T08:25:52.847Z,45.15
2023-01-18T08:27:54.503Z,48.33
2023-01-18T08:29:56.783Z,38.40
2023-01-18T08:32:00.200Z,43.03
2023-01-18T08:34:02.326Z,42.75
2023-01-18T08:36:03.985Z,39.78
2023-01-18T08:38:05.757Z,53.38
2023-01-18T08:40:07.746Z,50.55
2023-01-18T08:42:12.363Z,24.60
2023-01-18T08:44:13.935Z,27.35
2023-01-18T08:46:15.629Z,36.17
2023-01-18T08:48:17.216Z,45.42
2023-01-18T08:50:18.879Z,27.17
2023-01-18T08:52:20.367Z,46.42
2023-01-18T08:54:21.845Z,38.70
2023-01-18T08:56:23.488Z,30.38
2023-01-18T08:58:25.249Z,39.58
2023-01-18T09:00:30.623Z,37.63
2023-01-18T09:02:32.857Z,25.50
2023-01-18T09:04:35.074Z,38.05
2023-01-18T09:06:36.693Z,38.83
2023-01-18T09:08:38.195Z,40.50
2023-01-18T09:10:39.720Z,64.15
2023-01-18T09:12:41.278Z,30.15
2023-01-18T09:14:46.166Z,30.17
2023-01-18T09:16:47.764Z,40.45
2023-01-18T09:18:50.425Z,26.48
2023-01-18T09:20:54.297Z,24.65
2023-01-18T09:22:55.815Z,23.85
2023-01-18T09:24:57.673Z,26.13
2023-01-18T09:26:59.187Z,42.65
2023-01-18T09:29:00.749Z,24.52
2023-01-18T09:31:03.744Z,24.17
2023-01-18T09:33:06.324Z,24.60
2023-01-18T09:35:34.490Z,29.15
2023-01-18T09:37:38.794Z,27.08
2023-01-18T09:39:52.923Z,35.45
2023-01-18T09:42:16.943Z,34.10
2023-01-18T09:44:29.573Z,21.58
2023-01-18T09:46:42.024Z,24.52
2023-01-18T09:48:55.909Z,26.38
2023-01-18T09:51:12.011Z,31.83
2023-01-18T09:53:25.674Z,26.95
2023-01-18T09:56:01.351Z,51.38
2023-01-18T09:58:11.755Z,28.33
2023-01-18T10:00:25.772Z,28.33
2023-01-18T10:02:39.349Z,26.58
2023-01-18T10:04:44.774Z,25.95
2023-01-18T10:06:57.024Z,28.05
2023-01-18T10:09:15.699Z,21.83
2023-01-18T10:11:48.658Z,19.27
2023-01-18T10:13:59.990Z,26.92
2023-01-18T10:16:03.243Z,27.67
2023-01-18T10:18:12.749Z,40.05
2023-01-18T10:20:35.605Z,31.30
2023-01-18T10:23:16.612Z,28.00
2023-01-18T10:25:39.378Z,27.42
2023-01-18T10:27:43.774Z,28.40
2023-01-18T10:30:40.141Z,25.67
2023-01-18T10:32:53.738Z,22.75
2023-01-18T10:35:21.196Z,20.45
2023-01-18T10:37:35.680Z,21.52
2023-01-18T10:39:45.638Z,30.08
2023-01-18T10:41:51.138Z,24.52
2023-01-18T10:44:04.887Z,22.08
2023-01-18T10:46:21.798Z,28.85
2023-01-18T10:48:35.435Z,22.45
2023-01-18T10:50:53.398Z,22.05
2023-01-18T10:53:04.035Z,20.48
2023-01-18T10:55:32.996Z,25.70
2023-01-18T10:57:44.631Z,27.17
2023-01-18T10:59:52.094Z,24.15
2023-01-18T11:02:17.215Z,19.80
2023-01-18T11:04:26.311Z,20.17
2023-01-18T11:07:01.739Z,24.33
2023-01-18T11:09:03.404Z,18.50
2023-01-18T11:11:46.633Z,24.55
2023-01-18T11:13:49.603Z,20.52
2023-01-18T11:16:12.679Z,19.98
2023-01-18T11:18:15.665Z,17.38
2023-01-18T11:20:21.867Z,18.25
2023-01-18T11:22:24.404Z,16.65
2023-01-18T11:24:38.778Z,14.60
2023-01-18T11:27:14.763Z,17.45
2023-01-18T11:29:16.390Z,20.40
2023-01-18T11:31:24.221Z,20.00
2023-01-18T11:33:35.168Z,22.63
2023-01-18T11:35:37.317Z,19.50
2023-01-18T11:37:43.713Z,21.55
2023-01-18T11:39:45.716Z,29.27
2023-01-18T11:41:48.848Z,24.27
2023-01-18T11:44:13.057Z,24.77
2023-01-18T11:46:26.775Z,24.58
2023-01-18T11:48:50.056Z,25.13
2023-01-18T11:51:02.623Z,24.08
2023-01-18T11:53:14.888Z,29.42
2023-01-18T11:55:33.675Z,24.10
2023-01-18T11:57:35.235Z,21.97
2023-01-18T11:59:43.647Z,25.05
2023-01-18T12:02:23.039Z,17.00
2023-01-18T12:04:36.727Z,18.05
2023-01-18T12:06:38.890Z,19.38
2023-01-18T12:08:55.047Z,21.33
2023-01-18T12:11:26.819Z,17.17
2023-01-18T12:13:36.046Z,19.35
2023-01-18T12:16:13.762Z,18.17
2023-01-18T12:18:51.836Z,20.13
2023-01-18T12:21:29.071Z,18.58
2023-01-18T12:24:01.852Z,14.40
2023-01-18T12:26:22.413Z,15.55
2023-01-18T12:29:01.674Z,19.02
2023-01-18T12:31:15.072Z,22.90
2023-01-18T12:33:43.840Z,14.93
2023-01-18T12:35:45.603Z,21.15
2023-01-18T12:38:24.732Z,22.73
2023-01-18T12:40:40.856Z,16.15
2023-01-18T12:43:07.087Z,16.08
2023-01-18T12:45:53.146Z,30.38
2023-01-18T12:48:14.727Z,26.40
2023-01-18T12:50:24.906Z,25.35
2023-01-18T12:52:30.755Z,20.73
2023-01-18T12:54:56.052Z,19.80
2023-01-18T12:57:02.236Z,16.67
2023-01-18T12:59:28.847Z,14.93
2023-01-18T13:01:39.135Z,14.82
2023-01-18T13:03:49.601Z,16.55
2023-01-18T13:06:03.507Z,17.05
2023-01-18T13:08:25.602Z,19.67
2023-01-18T13:10:37.122Z,28.42
2023-01-18T13:12:49.474Z,33.33
2023-01-18T13:17:08.838Z,29.30
2023-01-18T13:19:16.975Z,30.23
2023-01-18T13:21:35.549Z,36.25
2023-01-18T13:23:48.170Z,31.08
2023-01-18T13:25:55.019Z,32.70
2023-01-18T13:28:02.682Z,36.15
2023-01-18T13:30:15.679Z,21.50
2023-01-18T13:32:27.968Z,20.40
2023-01-18T13:34:44.434Z,18.20
2023-01-18T13:36:49.614Z,21.50
2023-01-18T13:38:57.671Z,17.40
2023-01-18T13:41:05.628Z,25.60
2023-01-18T13:43:32.787Z,24.15
2023-01-18T13:46:06.477Z,35.60
2023-01-18T13:48:56.398Z,30.48
2023-01-18T13:51:03.987Z,34.25
2023-01-18T13:53:22.371Z,30.35
2023-01-18T13:55:34.114Z,32.05
2023-01-18T13:57:50.794Z,34.10
2023-01-18T13:59:53.558Z,33.10
2023-01-18T14:02:24.901Z,22.23
2023-01-18T14:04:45.073Z,28.58
2023-01-18T14:06:51.649Z,25.02
2023-01-18T14:09:14.604Z,42.10
2023-01-18T14:11:31.808Z,30.63
2023-01-18T14:13:45.453Z,27.85
2023-01-18T14:15:51.027Z,26.58
2023-01-18T14:17:58.500Z,34.80
2023-01-18T14:20:25.522Z,33.42
2023-01-18T14:22:51.205Z,35.40
2023-01-18T14:24:58.593Z,38.92
2023-01-18T14:27:01.133Z,58.72
2023-01-18T14:29:27.984Z,46.10
2023-01-18T14:31:33.835Z,84.55
2023-01-18T14:33:38.371Z,59.50
2023-01-18T14:35:51.877Z,41.55
2023-01-18T14:38:17.896Z,41.42
2023-01-18T14:40:22.902Z,42.80
2023-01-18T14:42:24.437Z,46.55
2023-01-18T14:44:57.720Z,44.72
2023-01-18T14:47:05.879Z,69.80
2023-01-18T14:49:17.144Z,87.93
2023-01-18T14:51:22.295Z,56.63
2023-01-18T14:53:29.898Z,61.40
2023-01-18T14:55:34.110Z,64.60
2023-01-18T14:57:35.674Z,55.38
2023-01-18T14:59:37.773Z,50.75
2023-01-18T15:01:40.308Z,55.40
2023-01-18T15:03:41.935Z,49.20
2023-01-18T15:05:43.595Z,55.75
2023-01-18T15:07:47.338Z,53.40
2023-01-18T15:09:50.044Z,54.40
2023-01-18T15:11:55.220Z,55.10
2023-01-18T15:13:57.716Z,58.05
2023-01-18T15:16:02.235Z,57.10
2023-01-18T15:18:20.192Z,57.28
2023-01-18T15:20:21.868Z,55.30
2023-01-18T15:22:29.504Z,109.30
2023-01-18T15:24:38.218Z,52.90
2023-01-18T15:26:44.110Z,52.03
2023-01-18T15:28:45.709Z,48.28
2023-01-18T15:30:55.217Z,71.38
2023-01-18T15:32:59.978Z,69.88
2023-01-18T15:35:03.063Z,77.40
2023-01-18T15:37:07.101Z,85.82
2023-01-18T15:39:13.981Z,60.33
2023-01-18T15:41:15.754Z,57.95
2023-01-18T15:43:29.486Z,70.32
2023-01-18T15:45:34.791Z,52.15
2023-01-18T15:47:39.046Z,47.75
2023-01-18T15:49:44.622Z,49.33
2023-01-18T15:51:52.643Z,53.85
2023-01-18T15:53:56.516Z,62.50
2023-01-18T15:56:03.392Z,59.97
2023-01-18T15:58:12.327Z,49.63
2023-01-18T16:00:38.239Z,36.58
2023-01-18T16:02:42.534Z,44.45
2023-01-18T16:04:45.327Z,80.38
2023-01-18T16:06:46.856Z,56.13
2023-01-18T16:09:12.070Z,58.25
2023-01-18T16:11:43.026Z,57.85
2023-01-18T16:13:45.635Z,58.95
2023-01-18T16:16:01.555Z,57.15
2023-01-18T16:18:06.425Z,61.08
2023-01-18T16:20:16.462Z,69.90
2023-01-18T16:22:27.122Z,77.15
2023-01-18T16:25:07.308Z,60.33
2023-01-18T16:27:11.943Z,60.38
2023-01-18T16:29:13.690Z,55.63
2023-01-18T16:31:15.351Z,61.40
2023-01-18T16:33:19.225Z,81.85
2023-01-18T16:35:22.541Z,54.50
2023-01-18T16:37:24.742Z,62.50
2023-01-18T16:39:26.255Z,58.35
2023-01-18T16:41:27.813Z,67.38
2023-01-18T16:43:30.152Z,62.72
2023-01-18T16:45:35.957Z,105.57
2023-01-18T16:47:37.538Z,89.97
2023-01-18T16:49:41.203Z,89.55
2023-01-18T16:51:42.777Z,111.47
2023-01-18T16:53:44.424Z,74.15
2023-01-18T16:55:48.269Z,66.53
2023-01-18T16:57:51.646Z,70.45
2023-01-18T16:59:53.355Z,66.60
2023-01-18T17:01:54.979Z,73.55
2023-01-18T17:03:56.653Z,65.60
2023-01-18T17:05:58.283Z,70.72
2023-01-18T17:08:00.453Z,69.35
2023-01-18T17:10:02.451Z,64.55
2023-01-18T17:12:04.229Z,62.67
2023-01-18T17:14:05.821Z,59.80
2023-01-18T17:16:19.325Z,54.80
2023-01-18T17:18:25.710Z,54.13
2023-01-18T17:20:28.992Z,57.17
2023-01-18T17:22:30.555Z,61.80
2023-01-18T17:24:32.300Z,66.80
2023-01-18T17:26:34.788Z,74.78
2023-01-18T17:28:36.386Z,53.92
2023-01-18T17:30:38.329Z,55.50
2023-01-18T17:32:40.053Z,55.35
2023-01-18T17:34:41.646Z,75.43
2023-01-18T17:36:43.185Z,53.38
2023-01-18T17:38:45.168Z,57.40
2023-01-18T17:40:46.708Z,76.68
2023-01-18T17:42:48.710Z,200.95
2023-01-18T17:44:50.708Z,56.72
2023-01-18T17:46:52.271Z,63.95
2023-01-18T17:48:54.095Z,79.00
2023-01-18T17:50:55.688Z,57.53
2023-01-18T17:52:57.871Z,46.85
2023-01-18T17:54:59.573Z,44.30
2023-01-18T17:57:01.517Z,44.15
2023-01-18T17:59:05.078Z,45.28
2023-01-18T18:01:06.831Z,50.28
2023-01-18T18:03:09.303Z,51.85
2023-01-18T18:05:11.003Z,55.38
2023-01-18T18:07:12.567Z,65.93
2023-01-18T18:09:14.138Z,84.70
2023-01-18T18:11:15.832Z,72.65
2023-01-18T18:13:18.858Z,65.60
2023-01-18T18:15:22.391Z,64.65
2023-01-18T18:17:25.731Z,56.58
2023-01-18T18:19:28.362Z,73.50
2023-01-18T18:21:29.995Z,87.15
2023-01-18T18:23:32.529Z,69.18
2023-01-18T18:25:34.276Z,60.35
2023-01-18T18:27:51.192Z,105.97
2023-01-18T18:29:52.962Z,208.02
2023-01-18T18:31:54.485Z,62.75
2023-01-18T18:33:56.042Z,49.63
2023-01-18T18:35:58.101Z,67.82
2023-01-18T18:38:00.288Z,54.53
2023-01-18T18:40:02.101Z,67.93
2023-01-18T18:42:03.732Z,59.85
2023-01-18T18:44:05.390Z,47.75
2023-01-18T18:46:07.183Z,43.72
2023-01-18T18:48:09.622Z,53.80
2023-01-18T18:50:11.629Z,51.00
2023-01-18T18:52:13.227Z,52.15
2023-01-18T18:54:14.778Z,47.75
2023-01-18T18:56:16.322Z,52.17
2023-01-18T18:58:18.108Z,39.30
2023-01-18T19:00:20.087Z,47.30
2023-01-18T19:02:21.922Z,46.97
2023-01-18T19:04:23.927Z,41.25
2023-01-18T19:06:26.261Z,42.38
2023-01-18T19:08:27.938Z,48.05
2023-01-18T19:10:30.460Z,60.20
2023-01-18T19:12:32.242Z,105.30
2023-01-18T19:14:33.791Z,56.05
2023-01-18T19:16:36.978Z,86.10
2023-01-18T19:18:38.800Z,271.48
2023-01-18T19:20:41.027Z,231.95
2023-01-18T19:22:42.727Z,71.30
2023-01-18T19:24:44.648Z,248.95
2023-01-18T19:26:46.480Z,87.50
2023-01-18T19:28:48.313Z,134.00
2023-01-18T19:30:50.134Z,96.95
2023-01-18T19:32:52.343Z,89.45
2023-01-18T19:34:53.960Z,104.35
2023-01-18T19:36:55.682Z,66.22
2023-01-18T19:39:00.138Z,60.70
2023-01-18T19:41:03.249Z,59.05
2023-01-18T19:43:04.966Z,82.25
2023-01-18T19:45:09.673Z,76.95
2023-01-18T19:47:11.639Z,83.03
2023-01-18T19:49:13.351Z,79.03
2023-01-18T19:51:22.349Z,52.08
2023-01-18T19:53:24.454Z,50.35
2023-01-18T19:55:26.144Z,48.08
2023-01-18T19:57:28.171Z,49.88
2023-01-18T19:59:29.864Z,55.72
2023-01-18T20:01:36.874Z,61.13
2023-01-18T20:03:38.898Z,76.88
2023-01-18T20:05:44.756Z,48.85
2023-01-18T20:07:46.468Z,47.53
2023-01-18T20:09:48.283Z,52.17
2023-01-18T20:11:49.856Z,52.83
2023-01-18T20:13:51.773Z,48.83
2023-01-18T20:15:54.700Z,45.28
2023-01-18T20:17:56.279Z,45.13
2023-01-18T20:19:57.921Z,46.90
2023-01-18T20:21:59.516Z,49.13
2023-01-18T20:24:01.108Z,50.03
2023-01-18T20:26:02.846Z,57.45
2023-01-18T20:28:04.788Z,60.70
2023-01-18T20:30:07.144Z,55.85
2023-01-18T20:32:15.782Z,60.45
2023-01-18T20:34:19.044Z,69.05
2023-01-18T20:36:20.547Z,73.22
2023-01-18T20:38:22.165Z,73.25
2023-01-18T20:40:24.052Z,59.33
2023-01-18T20:42:25.641Z,46.58
2023-01-18T20:44:27.553Z,43.30
2023-01-18T20:46:29.145Z,44.92
2023-01-18T20:48:32.468Z,45.15
2023-01-18T20:50:34.076Z,51.08
2023-01-18T20:52:35.582Z,50.63
2023-01-18T20:54:37.860Z,51.28
2023-01-18T20:56:39.439Z,49.38
2023-01-18T20:58:41.065Z,48.08
2023-01-18T21:00:43.365Z,46.53
2023-01-18T21:02:45.187Z,50.40
2023-01-18T21:04:46.898Z,46.25
2023-01-18T21:06:49.963Z,49.50
2023-01-18T21:08:56.007Z,53.03
2023-01-18T21:10:57.527Z,48.58
2023-01-18T21:12:59.344Z,55.67
2023-01-18T21:15:01.283Z,95.13
2023-01-18T21:17:02.921Z,102.15
2023-01-18T21:19:05.491Z,99.43
2023-01-18T21:21:07.406Z,77.40
2023-01-18T21:23:08.912Z,56.85
2023-01-18T21:25:10.515Z,51.67
2023-01-18T21:27:14.607Z,47.63
2023-01-18T21:29:16.220Z,46.70
2023-01-18T21:31:17.851Z,48.35
2023-01-18T21:33:20.060Z,51.08
2023-01-18T21:35:22.044Z,51.28
2023-01-18T21:37:23.638Z,60.65
2023-01-18T21:39:25.322Z,59.78
2023-01-18T21:41:45.656Z,55.47
2023-01-18T21:44:06.238Z,59.42
2023-01-18T21:46:10.991Z,59.10
2023-01-18T21:48:12.623Z,65.85
2023-01-18T21:50:32.516Z,72.38
2023-01-18T21:52:52.965Z,55.65
2023-01-18T21:54:54.450Z,48.03
2023-01-18T21:56:55.947Z,50.38
2023-01-18T21:59:01.142Z,50.30
2023-01-18T22:01:10.817Z,50.92
2023-01-18T22:03:15.238Z,65.30
2023-01-18T22:05:16.772Z,63.40
2023-01-18T22:07:18.354Z,69.88
2023-01-18T22:09:20.911Z,71.90
2023-01-18T22:11:22.642Z,61.33
2023-01-18T22:13:24.213Z,62.00
2023-01-18T22:15:25.801Z,78.57
2023-01-18T22:17:27.382Z,79.93
2023-01-18T22:19:28.938Z,73.75
2023-01-18T22:21:31.040Z,86.40
2023-01-18T22:23:33.832Z,83.72
2023-01-18T22:25:35.502Z,85.28
2023-01-18T22:27:37.147Z,93.38
2023-01-18T22:29:38.732Z,188.32
2023-01-18T22:31:40.507Z,141.70
2023-01-18T22:33:43.923Z,134.07
2023-01-18T22:35:45.459Z,88.68
2023-01-18T22:37:46.969Z,73.15
2023-01-18T22:39:48.541Z,70.82
2023-01-18T22:41:50.140Z,101.82
2023-01-18T22:43:53.091Z,93.90
2023-01-18T22:45:55.591Z,84.53
2023-01-18T22:47:57.358Z,81.10
2023-01-18T22:49:59.149Z,76.63
2023-01-18T22:52:00.756Z,76.63
2023-01-18T22:54:02.356Z,83.45
2023-01-18T22:56:05.176Z,81.28
2023-01-18T22:58:06.838Z,75.70
2023-01-18T23:00:08.975Z,71.82
2023-01-18T23:02:10.695Z,57.83
2023-01-18T23:04:12.358Z,83.45
2023-01-18T23:06:14.276Z,118.85
2023-01-18T23:08:15.782Z,145.68
2023-01-18T23:10:17.426Z,85.18
2023-01-18T23:12:19.005Z,79.22
2023-01-18T23:14:38.945Z,72.60
2023-01-18T23:16:59.323Z,77.60
2023-01-18T23:19:00.848Z,71.05
2023-01-18T23:21:02.378Z,97.43
2023-01-18T23:23:05.176Z,86.07
2023-01-18T23:25:07.040Z,69.05
2023-01-18T23:27:12.006Z,61.90
2023-01-18T23:29:14.155Z,70.13
2023-01-18T23:31:17.893Z,77.03
2023-01-18T23:33:19.478Z,57.17
2023-01-18T23:35:20.972Z,73.80
2023-01-18T23:37:22.691Z,65.45
2023-01-18T23:39:42.841Z,69.55
2023-01-18T23:42:03.055Z,69.82
2023-01-18T23:44:23.613Z,65.97
2023-01-18T23:46:43.653Z,66.80
2023-01-18T23:49:03.620Z,70.53
2023-01-18T23:51:24.161Z,77.43
2023-01-18T23:53:44.962Z,72.13
2023-01-18T23:55:46.751Z,72.80
2023-01-18T23:57:48.305Z,80.40
2023-01-18T23:59:49.894Z,70.90
